Terminal Aerodrome Forecast
Issued by NWS Melbourne, FL

Home | Current Version | Previous Version | Text Only | Print | Product List | Glossary On
Versions: 1 2 3 4 5 6 7 8 9 10 11 12 13 14 15 16 17 18
000
FTUS42 KMLB 091742
TAFVRB
TAF
KVRB 091742Z 0918/1018 35014G21KT P6SM FEW012 BKN120 OVC150
     FM100000 01012KT P6SM FEW030 SCT120 BKN150
     FM100600 01010KT P6SM BKN040 BKN150
     FM101400 03014G22KT P6SM VCSH BKN040=

USA.gov is the U.S. government's official web portal to all federal, state and local government web resources and services.